Terminal Aerodrome Forecast
Issued by NWS

Home | Current Version | Previous Version | Text Only | Print | Product List | Glossary On
Versions: 1 2 3 4 5 6 7 8 9 10 11 12 13 14 15 16 17 18 19 20 21 22 23 24 25 26 27 28 29 30 31 32 33 34 35
000
FTUS46 KEKA 201139
TAFACV
TAF
KACV 201139Z 2012/2112 16009KT 3SM -RA BR SCT015 OVC025
      WS020/20045KT
     FM201400 15010KT 3SM -RA BR FEW007 SCT015 OVC020 WS020/22035KT
     FM202100 15008KT 2SM -RA BR SCT007 OVC020 WS020/20035KT
     FM210600 14008KT 5SM -RA BR SCT020 BKN050 WS020/20035KT=

USA.gov is the U.S. government's official web portal to all federal, state and local government web resources and services.